Time;durP1;ratioP1;P1;durP2;ratioP2;P2;SDS_P1;SDS_P2;PMS_P1;PMS_P2;Temp;Humidity;BMP_temperature;BMP_pressure;BME280_temperature;BME280_humidity;BME280_pressure;Samples;Min_cycle;Max_cycle;Signal;HPM_P1;HPM_P2
2022/01/22 00:00:45;;;;;;;1.58;1.35;;;-1.10;99.90;;;;;;5020029;28;20112;-74
2022/01/22 00:03:11;;;;;;;0.50;0.50;;;-1.10;99.90;;;;;;5054167;28;20055;-74
2022/01/22 00:05:37;;;;;;;0.90;0.90;;;-1.10;99.90;;;;;;5036260;28;20033;-74
2022/01/22 00:08:03;;;;;;;1.38;0.75;;;-1.00;99.90;;;;;;5036482;28;20033;-74
2022/01/22 00:10:29;;;;;;;1.10;1.02;;;-1.00;99.90;;;;;;5036414;28;20029;-74
2022/01/22 00:15:29;;;;;;;1.15;0.57;;;-0.90;99.90;;;;;;5054307;28;20020;-74
2022/01/22 00:17:55;;;;;;;1.20;1.10;;;-0.90;99.90;;;;;;5036120;28;20025;-74
2022/01/22 00:20:26;;;;;;;0.60;0.60;;;-1.00;99.90;;;;;;5036233;28;20476;-74
2022/01/22 00:22:52;;;;;;;0.73;0.73;;;-1.00;99.90;;;;;;5019610;28;20028;-74
2022/01/22 00:25:20;;;;;;;9.73;1.23;;;-0.80;99.90;;;;;;5036345;28;20064;-74
2022/01/22 00:27:47;;;;;;;1.40;1.15;;;-0.80;99.90;;;;;;5019656;28;20388;-74
2022/01/22 00:30:17;;;;;;;30.13;1.70;;;-0.80;99.90;;;;;;5036073;28;20031;-74
2022/01/22 00:32:43;;;;;;;8.07;1.30;;;-0.90;99.90;;;;;;5053775;28;20017;-74
2022/01/22 00:35:09;;;;;;;0.40;0.40;;;-0.80;99.90;;;;;;5019412;28;20048;-74
2022/01/22 00:37:39;;;;;;;1.05;1.05;;;-0.80;99.90;;;;;;5053805;28;20542;-73
2022/01/22 00:40:05;;;;;;;0.73;0.70;;;-0.90;99.90;;;;;;5053805;28;20021;-74
2022/01/22 00:42:33;;;;;;;0.50;0.50;;;-0.90;99.90;;;;;;5053724;28;20083;-74
2022/01/22 00:44:59;;;;;;;0.40;0.40;;;-0.90;99.90;;;;;;5035796;28;20056;-74
2022/01/22 00:47:25;;;;;;;0.70;0.70;;;-0.90;99.90;;;;;;5052848;28;20021;-74
2022/01/22 00:49:51;;;;;;;1.00;0.73;;;-0.80;99.90;;;;;;5053690;28;20040;-74
2022/01/22 00:52:16;;;;;;;0.47;0.47;;;-0.80;99.90;;;;;;5035606;28;20031;-74
2022/01/22 00:54:42;;;;;;;1.27;1.27;;;-0.70;99.90;;;;;;5053785;28;20029;-74
2022/01/22 00:57:08;;;;;;;0.35;0.35;;;-0.80;99.90;;;;;;5053474;28;20032;-74
2022/01/22 00:59:35;;;;;;;1.85;1.05;;;-0.80;99.90;;;;;;5035473;28;20025;-74
2022/01/22 01:02:01;;;;;;;0.50;0.50;;;-0.70;99.90;;;;;;5053228;28;20025;-74
2022/01/22 01:04:28;;;;;;;4.40;0.63;;;-0.70;99.90;;;;;;5035369;28;20396;-74
2022/01/22 01:06:54;;;;;;;0.30;0.30;;;-0.70;99.90;;;;;;5053233;28;20013;-74
2022/01/22 01:09:20;;;;;;;0.40;0.40;;;-0.80;99.90;;;;;;5035372;28;20029;-73
2022/01/22 01:11:53;;;;;;;0.63;0.63;;;-0.70;99.90;;;;;;5053140;28;20025;-74
2022/01/22 01:14:27;;;;;;;0.43;0.43;;;-0.70;99.90;;;;;;5035412;28;20028;-74
2022/01/22 01:33:09;;;;;;;1.95;1.15;;;-0.70;99.90;;;;;;5052569;28;20029;-74
2022/01/22 01:35:38;;;;;;;0.30;0.30;;;-0.70;99.90;;;;;;5034727;28;20021;-74
2022/01/22 01:38:05;;;;;;;1.13;0.90;;;-0.70;99.90;;;;;;5018294;28;20032;-74
2022/01/22 01:40:32;;;;;;;0.40;0.40;;;-0.60;99.90;;;;;;5052654;28;20028;-74
2022/01/22 01:43:15;;;;;;;0.50;0.50;;;-0.50;99.90;;;;;;5052431;28;20440;-74
2022/01/22 01:45:41;;;;;;;0.30;0.30;;;-0.50;99.90;;;;;;5018157;28;20040;-74
2022/01/22 01:48:12;;;;;;;0.70;0.70;;;-0.50;99.90;;;;;;5052431;28;20021;-74
2022/01/22 01:50:40;;;;;;;;;;;-0.50;99.90;;;;;;5035084;28;20021;-74
2022/01/22 01:55:49;;;;;;;0.60;0.60;;;-0.50;99.90;;;;;;5052293;28;20021;-74
2022/01/22 01:58:16;;;;;;;0.38;0.38;;;-0.40;99.90;;;;;;5017318;28;20021;-74
2022/01/22 02:00:42;;;;;;;0.60;0.60;;;-0.50;99.90;;;;;;5033999;28;20071;-74
2022/01/22 02:03:09;;;;;;;0.40;0.40;;;-0.60;99.90;;;;;;5052184;28;20036;-74
2022/01/22 02:05:36;;;;;;;1.98;0.70;;;-0.60;99.90;;;;;;5052032;28;20043;-74
2022/01/22 02:08:03;;;;;;;0.40;0.40;;;-0.50;99.90;;;;;;5052175;28;20519;-74
2022/01/22 02:10:32;;;;;;;0.30;0.30;;;-0.50;99.90;;;;;;5034405;28;20052;-75
2022/01/22 02:23:57;;;;;;;0.40;0.40;;;-0.50;99.90;;;;;;5052067;28;20100;-74
2022/01/22 02:26:23;;;;;;;1.35;1.15;;;-0.50;99.90;;;;;;5051919;28;20039;-74
2022/01/22 02:28:51;;;;;;;0.77;0.60;;;-0.50;99.90;;;;;;5051958;28;20235;-74
2022/01/22 02:39:13;;;;;;;1.42;1.33;;;-0.40;99.90;;;;;;5051755;28;20021;-74
2022/01/22 02:41:30;;;;;;;0.47;0.47;;;-0.40;99.90;;;;;;5032424;28;20094;-74
2022/01/22 02:43:56;;;;;;;0.50;0.50;;;-0.40;99.90;;;;;;5051719;28;20025;-74
2022/01/22 02:46:25;;;;;;;1.75;0.50;;;-0.40;99.90;;;;;;5033798;28;20079;-74
2022/01/22 02:48:55;;;;;;;0.38;0.38;;;-0.40;99.90;;;;;;5051693;28;20396;-74
2022/01/22 02:51:22;;;;;;;0.30;0.30;;;-0.30;99.90;;;;;;5051563;28;20021;-74
2022/01/22 02:53:49;;;;;;;0.50;0.50;;;-0.30;99.90;;;;;;5051567;28;20060;-74
2022/01/22 02:56:17;;;;;;;0.82;0.82;;;-0.30;99.90;;;;;;5051586;28;20052;-74
2022/01/22 02:58:42;;;;;;;2.53;0.82;;;-0.40;99.90;;;;;;5051757;28;20017;-74
2022/01/22 03:01:08;;;;;;;1.75;0.80;;;-0.50;99.90;;;;;;5051616;28;20067;-74
2022/01/22 03:03:37;;;;;;;0.30;0.30;;;-0.50;99.90;;;;;;5033716;28;20026;-74
2022/01/22 03:06:03;;;;;;;0.38;0.38;;;-0.50;99.90;;;;;;5033589;28;20061;-74
2022/01/22 03:08:31;;;;;;;1.42;0.90;;;-0.50;99.90;;;;;;5051562;28;20064;-74
2022/01/22 03:10:57;;;;;;;0.50;0.50;;;-0.50;99.90;;;;;;5035985;28;20025;-74
2022/01/22 03:21:28;;;;;;;0.77;0.77;;;-0.50;99.90;;;;;;5037302;28;20127;-72
2022/01/22 03:32:19;;;;;;;0.98;0.98;;;-0.50;99.90;;;;;;5041479;28;20527;-72
2022/01/22 03:35:34;;;;;;;2.92;0.40;;;-0.60;99.90;;;;;;5037049;28;20025;-74
2022/01/22 03:37:35;;;;;;;0.40;0.40;;;-0.60;99.90;;;;;;5029009;28;20037;-74
2022/01/22 03:40:00;;;;;;;0.40;0.40;;;-0.60;99.90;;;;;;5054885;28;20017;-72
2022/01/22 03:42:26;;;;;;;0.73;0.65;;;-0.60;99.90;;;;;;5055134;28;20517;-72
2022/01/22 03:44:52;;;;;;;0.70;0.70;;;-0.50;99.90;;;;;;5037035;28;20027;-72
2022/01/22 03:47:18;;;;;;;0.40;0.40;;;-0.50;99.90;;;;;;5036746;28;20032;-72
2022/01/22 03:49:44;;;;;;;0.30;0.30;;;-0.50;99.90;;;;;;5036846;28;20096;-72
2022/01/22 03:52:10;;;;;;;0.50;0.50;;;-0.30;99.90;;;;;;5036635;28;20055;-75
2022/01/22 03:54:36;;;;;;;0.40;0.40;;;-0.40;99.90;;;;;;5054699;28;20017;-74
2022/01/22 03:57:02;;;;;;;0.30;0.30;;;-0.40;99.90;;;;;;5054583;28;20045;-74
2022/01/22 03:59:30;;;;;;;0.77;0.52;;;-0.40;99.90;;;;;;5036807;28;20509;-74
2022/01/22 04:04:39;;;;;;;0.60;0.60;;;-0.30;99.90;;;;;;5054480;28;20056;-74
2022/01/22 04:09:44;;;;;;;1.90;0.55;;;-0.40;99.90;;;;;;5054449;28;20028;-74
2022/01/22 04:12:13;;;;;;;0.60;0.60;;;-0.40;99.90;;;;;;5054164;28;20374;-74
2022/01/22 04:14:47;;;;;;;0.43;0.43;;;-0.40;99.90;;;;;;5054161;28;20025;-74
2022/01/22 04:25:08;;;;;;;0.43;0.43;;;-0.50;99.90;;;;;;5054087;28;20056;-73
2022/01/22 04:27:34;;;;;;;0.43;0.43;;;-0.60;99.90;;;;;;5054225;28;20071;-74
2022/01/22 04:30:00;;;;;;;0.40;0.40;;;-0.60;99.90;;;;;;5054042;28;20028;-74
2022/01/22 04:32:28;;;;;;;0.40;0.40;;;-0.60;99.90;;;;;;5035922;28;20021;-74
2022/01/22 04:34:54;;;;;;;0.60;0.60;;;-0.60;99.90;;;;;;5054225;28;20021;-74
2022/01/22 04:37:22;;;;;;;1.42;0.57;;;-0.50;99.90;;;;;;5036050;28;20477;-73
2022/01/22 04:39:48;;;;;;;0.88;0.88;;;-0.60;99.90;;;;;;5019500;28;20032;-73
2022/01/22 04:42:15;;;;;;;0.47;0.47;;;-0.60;99.90;;;;;;5053635;28;20029;-73
2022/01/22 04:45:06;;;;;;;0.30;0.30;;;-0.70;99.90;;;;;;5036476;28;20314;-74
2022/01/22 04:47:45;;;;;;;0.30;0.30;;;-0.70;99.90;;;;;;5053272;28;20033;-74
2022/01/22 04:55:34;;;;;;;1.65;0.52;;;-0.80;99.90;;;;;;5035593;28;20048;-74
2022/01/22 04:58:03;;;;;;;0.82;0.82;;;-0.80;99.90;;;;;;5053719;28;20032;-74
2022/01/22 05:00:33;;;;;;;0.50;0.45;;;-0.90;99.90;;;;;;5053624;28;20108;-74
2022/01/22 05:03:00;;;;;;;1.42;0.50;;;-1.00;99.90;;;;;;5035497;28;20078;-74
2022/01/22 05:05:27;;;;;;;1.10;0.90;;;-1.00;99.90;;;;;;5053167;28;20033;-73
2022/01/22 05:07:52;;;;;;;1.55;1.00;;;-0.90;99.90;;;;;;5035558;28;20029;-74
2022/01/22 05:10:19;;;;;;;0.65;0.65;;;-1.10;99.90;;;;;;5035430;28;20036;-74
2022/01/22 05:12:45;;;;;;;0.95;0.68;;;-1.00;99.90;;;;;;5035447;28;20044;-74
2022/01/22 05:15:11;;;;;;;5.97;1.13;;;-1.00;99.90;;;;;;5035186;28;20025;-74
2022/01/22 05:17:40;;;;;;;0.52;0.52;;;-1.20;99.90;;;;;;5035396;28;20017;-74
2022/01/22 05:20:33;;;;;;;0.50;0.47;;;-1.10;99.90;;;;;;5089312;22;20092;-91
2022/01/22 05:23:16;;;;;;;0.85;0.73;;;-1.10;99.90;;;;;;5004529;28;20029;-91
2022/01/22 05:25:59;;;;;;;0.30;0.30;;;-1.10;99.90;;;;;;5021151;28;20030;-92
2022/01/22 05:29:30;;;;;;;1.13;0.90;;;-1.00;99.90;;;;;;5010374;28;20072;-92
2022/01/22 05:38:58;;;;;;;1.45;1.00;;;-1.10;99.90;;;;;;4993397;28;20038;-91
2022/01/22 05:42:15;;;;;;;1.48;1.33;;;-1.20;99.90;;;;;;4938631;28;20032;-92
2022/01/22 05:45:10;;;;;;;6.00;2.10;;;-1.20;99.90;;;;;;4931824;28;20044;-93
2022/01/22 06:01:31;;;;;;;;;;;;;;;;;;;;;
2022/01/22 06:43:55;;;;;;;0.60;0.60;;;-1.00;99.90;;;;;;5031831;28;20056;-75
2022/01/22 06:46:21;;;;;;;0.57;0.57;;;-1.10;99.90;;;;;;5017302;28;20022;-76
2022/01/22 06:48:47;;;;;;;1.58;1.35;;;-1.00;99.90;;;;;;5018166;28;20029;-75
2022/01/22 06:51:12;;;;;;;0.35;0.35;;;-1.00;99.90;;;;;;5035887;28;20022;-75
2022/01/22 06:53:40;;;;;;;0.60;0.60;;;-1.00;99.90;;;;;;5035749;28;20104;-75
2022/01/22 06:56:09;;;;;;;2.95;1.38;;;-1.00;99.90;;;;;;5035661;28;20148;-76
2022/01/22 06:58:34;;;;;;;0.85;0.85;;;-1.00;99.90;;;;;;5035771;28;20021;-76
2022/01/22 07:01:00;;;;;;;4.85;2.25;;;-1.00;99.90;;;;;;5035578;28;20033;-75
2022/01/22 07:03:26;;;;;;;1.65;0.60;;;-0.90;99.90;;;;;;5034161;28;20117;-76
2022/01/22 07:05:52;;;;;;;1.15;0.77;;;-0.90;99.90;;;;;;5035410;28;20381;-76
2022/01/22 07:08:17;;;;;;;1.70;1.00;;;-0.80;99.90;;;;;;5035690;28;20025;-75
2022/01/22 07:10:43;;;;;;;2.10;1.20;;;-0.70;99.90;;;;;;5035391;28;20021;-75
2022/01/22 07:13:09;;;;;;;0.70;0.70;;;-0.70;99.90;;;;;;5001369;28;20033;-76
2022/01/22 07:15:35;;;;;;;0.68;0.65;;;-0.70;99.90;;;;;;5017649;28;20393;-75
2022/01/22 07:18:01;;;;;;;0.73;0.73;;;-0.70;99.90;;;;;;5035525;28;20025;-76
2022/01/22 07:20:29;;;;;;;3.63;1.42;;;-0.60;99.90;;;;;;5017534;28;20480;-75
2022/01/22 07:23:12;;;;;;;1.85;1.45;;;-0.70;99.90;;;;;;5022652;28;20499;-75
2022/01/22 07:25:38;;;;;;;1.23;1.13;;;-0.60;99.90;;;;;;5054366;28;20176;-75
2022/01/22 07:28:04;;;;;;;2.17;0.85;;;-0.70;99.90;;;;;;5032991;28;20022;-75
2022/01/22 07:30:30;;;;;;;3.20;1.50;;;-0.70;99.90;;;;;;5034574;28;20071;-75
2022/01/22 07:32:56;;;;;;;0.63;0.63;;;-0.80;99.90;;;;;;5038235;28;20036;-76
2022/01/22 07:35:22;;;;;;;0.77;0.77;;;-0.70;99.90;;;;;;5040062;28;20039;-75
2022/01/22 07:37:48;;;;;;;1.77;1.00;;;-0.60;99.90;;;;;;5022485;28;20424;-75
2022/01/22 07:40:14;;;;;;;1.70;1.27;;;-0.60;99.90;;;;;;5034365;28;20515;-75
2022/01/22 07:42:40;;;;;;;2.15;1.33;;;-0.50;99.90;;;;;;5033481;28;20567;-75
2022/01/22 07:45:08;;;;;;;1.25;1.05;;;-0.50;99.90;;;;;;5035314;28;20026;-75
2022/01/22 07:47:34;;;;;;;3.08;1.52;;;-0.60;99.90;;;;;;5016876;28;20032;-75
2022/01/22 07:50:00;;;;;;;16.85;1.85;;;-0.60;99.90;;;;;;5054737;28;20387;-76
2022/01/22 07:52:26;;;;;;;3.25;1.50;;;-0.50;99.90;;;;;;5036773;28;20336;-76
2022/01/22 07:54:52;;;;;;;1.45;1.35;;;-0.50;99.90;;;;;;5021571;28;20060;-75
2022/01/22 07:57:18;;;;;;;0.90;0.90;;;-0.60;99.90;;;;;;5034033;28;20030;-76
2022/01/22 07:59:44;;;;;;;0.77;0.77;;;-0.50;99.90;;;;;;5016672;28;20108;-76
2022/01/22 08:02:10;;;;;;;1.48;1.05;;;-0.50;99.90;;;;;;5033899;28;20045;-76
2022/01/22 08:04:36;;;;;;;4.55;1.52;;;-0.50;99.90;;;;;;5033151;28;20029;-76
2022/01/22 08:07:03;;;;;;;3.13;1.83;;;-0.50;99.90;;;;;;5013197;28;20068;-76
2022/01/22 08:09:30;;;;;;;1.90;1.45;;;-0.40;99.90;;;;;;5014580;28;20056;-76
2022/01/22 08:11:56;;;;;;;2.47;1.88;;;-0.40;99.90;;;;;;5014712;28;20064;-76
2022/01/22 08:14:21;;;;;;;3.97;2.35;;;-0.40;99.90;;;;;;5014565;28;20066;-76
2022/01/22 08:16:49;;;;;;;1.48;1.30;;;-0.40;99.90;;;;;;4997117;28;20026;-77
2022/01/22 08:19:16;;;;;;;1.52;1.35;;;-0.40;99.90;;;;;;5014792;28;20033;-78
2022/01/22 08:21:46;;;;;;;2.38;1.83;;;-0.40;99.90;;;;;;4997163;28;20033;-76
2022/01/22 08:24:13;;;;;;;1.08;0.98;;;-0.30;99.90;;;;;;4996555;28;20033;-76
2022/01/22 08:26:46;;;;;;;1.05;0.95;;;-0.30;99.90;;;;;;5014277;28;20080;-76
2022/01/22 08:29:12;;;;;;;1.45;1.00;;;-0.30;99.90;;;;;;5014295;28;20029;-76
2022/01/22 08:31:52;;;;;;;2.05;1.80;;;-0.20;99.90;;;;;;4997140;28;20029;-79
2022/01/22 08:37:03;;;;;;;1.70;1.23;;;-0.20;99.90;;;;;;4997632;28;20026;-77
2022/01/22 08:39:28;;;;;;;1.45;1.15;;;-0.20;99.90;;;;;;5014692;28;20048;-75
2022/01/22 08:41:55;;;;;;;0.93;0.88;;;-0.10;99.90;;;;;;4996721;28;20848;-74
2022/01/22 08:44:21;;;;;;;4.47;0.68;;;-0.10;99.90;;;;;;4996522;28;20036;-75
2022/01/22 08:46:48;;;;;;;2.13;0.90;;;0.00;99.90;;;;;;5013735;28;20053;-76
2022/01/22 08:49:13;;;;;;;0.90;0.90;;;0.00;99.90;;;;;;5013666;28;20481;-76
2022/01/22 08:51:39;;;;;;;0.57;0.47;;;0.00;99.90;;;;;;5013756;28;20052;-76
2022/01/22 08:54:08;;;;;;;2.45;1.65;;;0.00;99.90;;;;;;5012452;28;20069;-76
2022/01/22 08:56:34;;;;;;;6.03;2.60;;;0.00;99.90;;;;;;5013629;28;20026;-76
2022/01/22 08:59:00;;;;;;;2.22;0.85;;;0.00;99.90;;;;;;5013795;28;20052;-76
2022/01/22 09:01:26;;;;;;;0.98;0.32;;;0.10;99.90;;;;;;5013516;28;20026;-76
2022/01/22 09:03:52;;;;;;;2.72;1.55;;;0.10;99.90;;;;;;5013515;28;20022;-76
2022/01/22 09:06:19;;;;;;;6.20;2.20;;;0.00;99.90;;;;;;5013367;28;20079;-76
2022/01/22 09:08:49;;;;;;;2.38;2.17;;;0.00;99.90;;;;;;5012962;28;20046;-76
2022/01/22 09:11:15;;;;;;;1.65;1.55;;;0.10;99.90;;;;;;5012236;28;20018;-76
2022/01/22 09:13:40;;;;;;;4.40;1.55;;;0.00;99.90;;;;;;5013407;28;20022;-76
2022/01/22 09:16:06;;;;;;;3.17;2.10;;;0.10;99.90;;;;;;5013220;28;20183;-76
2022/01/22 09:18:32;;;;;;;3.47;2.42;;;0.20;99.90;;;;;;5013257;28;20489;-76
2022/01/22 09:23:26;;;;;;;1.67;1.27;;;0.20;99.90;;;;;;5013050;28;20037;-75
2022/01/22 09:25:52;;;;;;;4.43;1.58;;;0.30;99.90;;;;;;5013079;28;20389;-76
2022/01/22 09:28:18;;;;;;;1.35;0.93;;;0.40;99.90;;;;;;5013177;28;20049;-75
2022/01/22 09:30:45;;;;;;;4.22;1.65;;;0.30;99.90;;;;;;5013118;28;20018;-76
2022/01/22 09:33:11;;;;;;;4.45;2.42;;;0.40;99.90;;;;;;5011749;28;20030;-75
2022/01/22 09:35:36;;;;;;;6.82;1.50;;;0.20;99.90;;;;;;4995190;28;20040;-76
2022/01/22 09:38:02;;;;;;;3.92;2.45;;;0.20;99.90;;;;;;5012953;28;20096;-76
2022/01/22 09:40:29;;;;;;;1.38;1.00;;;0.10;99.90;;;;;;5012846;28;20069;-76
2022/01/22 09:42:57;;;;;;;3.42;1.88;;;0.10;99.90;;;;;;5012772;28;20026;-76
2022/01/22 09:45:23;;;;;;;0.63;0.63;;;0.30;99.90;;;;;;5012830;28;20018;-76
2022/01/22 09:47:50;;;;;;;0.40;0.40;;;0.20;99.90;;;;;;4994774;28;20125;-76
2022/01/22 09:50:18;;;;;;;2.15;1.85;;;0.30;99.90;;;;;;5012733;28;20084;-76
2022/01/22 09:52:48;;;;;;;4.28;2.22;;;0.40;99.90;;;;;;5012648;28;20054;-76
2022/01/22 09:55:14;;;;;;;4.38;0.73;;;0.40;99.90;;;;;;4995003;28;20500;-76
2022/01/22 09:57:40;;;;;;;0.38;0.38;;;0.30;99.90;;;;;;5012701;28;20034;-76
2022/01/22 10:00:18;;;;;;;0.77;0.75;;;0.50;99.90;;;;;;5012507;28;20033;-76
2022/01/22 10:02:50;;;;;;;1.13;0.93;;;0.50;99.90;;;;;;5011194;28;20402;-76
2022/01/22 10:05:27;;;;;;;2.58;0.88;;;0.50;99.90;;;;;;4996996;28;20079;-76
2022/01/22 10:07:53;;;;;;;0.20;0.20;;;0.60;99.90;;;;;;5012350;28;20109;-76
2022/01/22 10:10:20;;;;;;;2.53;2.33;;;0.60;99.90;;;;;;4994724;28;20101;-76
2022/01/22 10:12:48;;;;;;;6.80;1.92;;;0.60;99.90;;;;;;4994348;28;20417;-75
2022/01/22 10:15:20;;;;;;;4.47;2.08;;;0.60;99.90;;;;;;5012242;28;20037;-76
2022/01/22 10:17:56;;;;;;;2.92;1.88;;;0.60;99.90;;;;;;5012285;28;20152;-75
2022/01/22 10:20:22;;;;;;;0.55;0.55;;;0.70;99.90;;;;;;5011419;28;20026;-75
2022/01/22 10:22:53;;;;;;;5.05;1.92;;;0.70;99.90;;;;;;5012203;28;20508;-75
2022/01/22 10:25:28;;;;;;;1.40;1.30;;;0.80;99.90;;;;;;5012150;28;20025;-76
2022/01/22 10:27:59;;;;;;;2.35;1.23;;;0.90;99.90;;;;;;4994553;28;20507;-75
2022/01/22 10:30:34;;;;;;;3.40;1.88;;;0.80;99.90;;;;;;5011089;28;20030;-75
2022/01/22 10:35:49;;;;;;;0.50;0.50;;;0.90;99.90;;;;;;5011988;28;20038;-75
2022/01/22 10:38:17;;;;;;;1.10;1.00;;;1.00;99.90;;;;;;5012196;28;20061;-75
2022/01/22 10:40:45;;;;;;;0.82;0.80;;;1.10;99.90;;;;;;5012090;28;20034;-75
2022/01/22 10:43:34;;;;;;;1.05;0.98;;;1.00;99.90;;;;;;5011921;28;20026;-75
2022/01/22 10:48:52;;;;;;;1.45;0.80;;;0.80;99.90;;;;;;5012049;28;20053;-76
2022/01/22 10:51:18;;;;;;;1.65;1.33;;;0.90;99.90;;;;;;5011503;28;20026;-75
2022/01/22 10:53:49;;;;;;;0.30;0.30;;;0.80;99.90;;;;;;5012453;28;20470;-75
2022/01/22 10:56:20;;;;;;;0.52;0.50;;;0.90;99.90;;;;;;5012157;28;20029;-75
2022/01/22 10:59:01;;;;;;;10.30;3.38;;;1.00;99.90;;;;;;5012240;28;20026;-74
2022/01/22 11:01:48;;;;;;;0.77;0.77;;;0.90;99.90;;;;;;5011922;28;20026;-76
2022/01/22 11:04:29;;;;;;;1.58;1.48;;;1.00;99.90;;;;;;4994583;28;20030;-76
2022/01/22 11:07:07;;;;;;;0.40;0.40;;;1.00;99.90;;;;;;5010861;28;20053;-76
2022/01/22 11:09:34;;;;;;;0.20;0.20;;;0.90;99.90;;;;;;4995071;28;20033;-76
2022/01/22 11:12:02;;;;;;;3.92;1.85;;;1.00;99.90;;;;;;5013484;28;20023;-73
2022/01/22 11:14:30;;;;;;;1.23;1.08;;;1.10;99.90;;;;;;4996540;28;20030;-74
2022/01/22 11:16:56;;;;;;;6.57;2.22;;;1.00;99.90;;;;;;5013484;28;20501;-74
2022/01/22 11:19:30;;;;;;;1.02;0.82;;;0.90;99.90;;;;;;5028890;22;20054;-74
2022/01/22 11:21:57;;;;;;;3.55;2.03;;;1.00;99.90;;;;;;5013672;28;20041;-74
2022/01/22 11:24:25;;;;;;;0.73;0.55;;;0.90;99.90;;;;;;5013604;28;20029;-74
2022/01/22 11:26:54;;;;;;;0.93;0.77;;;1.00;99.90;;;;;;5013550;28;20033;-74
2022/01/22 11:29:36;;;;;;;0.40;0.40;;;1.00;99.90;;;;;;5013858;28;20488;-74
2022/01/22 11:32:08;;;;;;;0.45;0.45;;;1.00;99.90;;;;;;5033421;28;20024;-74
2022/01/22 11:34:35;;;;;;;;;;;1.10;99.90;;;;;;5035403;28;20021;-74
2022/01/22 11:37:14;;;;;;;1.60;1.45;;;1.20;99.90;;;;;;5000953;28;19905;-74
2022/01/22 11:39:40;;;;;;;0.75;0.75;;;1.20;99.90;;;;;;5034796;28;20029;-74
2022/01/22 11:42:06;;;;;;;1.55;1.45;;;1.20;99.90;;;;;;5035171;28;20036;-74
2022/01/22 11:45:02;;;;;;;1.83;1.45;;;1.30;99.90;;;;;;5033378;28;20022;-74
2022/01/22 11:47:27;;;;;;;0.35;0.35;;;1.20;99.90;;;;;;5017202;28;20057;-74
2022/01/22 11:50:11;;;;;;;2.25;1.73;;;1.10;99.90;;;;;;5034903;28;20057;-74
2022/01/22 11:52:41;;;;;;;0.32;0.32;;;1.20;99.90;;;;;;5016840;28;20507;-74
2022/01/22 11:55:14;;;;;;;1.42;1.20;;;1.30;99.90;;;;;;5016916;28;20018;-76
2022/01/22 11:57:41;;;;;;;1.27;0.95;;;1.30;99.90;;;;;;5034366;28;20385;-74
2022/01/22 12:00:29;;;;;;;0.20;0.20;;;1.30;99.90;;;;;;5000329;28;20052;-74
2022/01/22 12:03:03;;;;;;;1.33;1.27;;;1.40;99.90;;;;;;5016505;28;20025;-74
2022/01/22 12:05:32;;;;;;;0.82;0.82;;;1.40;99.90;;;;;;5034308;28;20037;-73
2022/01/22 12:08:00;;;;;;;0.85;0.85;;;1.30;99.90;;;;;;5034509;28;20148;-75
2022/01/22 12:10:38;;;;;;;0.65;0.65;;;1.50;99.90;;;;;;5016453;28;20493;-74
2022/01/22 12:16:09;;;;;;;5.38;1.05;;;1.30;99.90;;;;;;5034738;28;20026;-74
2022/01/22 12:18:40;;;;;;;0.65;0.65;;;1.50;99.90;;;;;;5034256;28;20080;-74
2022/01/22 12:23:32;;;;;;;0.70;0.70;;;1.40;99.90;;;;;;5016289;28;20477;-74
2022/01/22 12:26:00;;;;;;;2.00;1.80;;;1.40;99.90;;;;;;5033941;28;20053;-74
2022/01/22 12:28:44;;;;;;;0.50;0.50;;;1.40;99.90;;;;;;5033837;28;20022;-74
2022/01/22 12:31:19;;;;;;;0.20;0.20;;;1.50;99.90;;;;;;5033760;28;20021;-73
2022/01/22 12:33:53;;;;;;;1.42;1.08;;;1.40;99.90;;;;;;4999942;28;20029;-74
2022/01/22 12:36:26;;;;;;;0.20;0.20;;;1.20;99.90;;;;;;4999802;28;20037;-73
2022/01/22 12:39:15;;;;;;;0.40;0.40;;;1.30;99.90;;;;;;5033933;28;20018;-74
2022/01/22 12:41:51;;;;;;;1.45;1.35;;;1.40;99.90;;;;;;5016009;28;20030;-74
2022/01/22 12:47:10;;;;;;;0.20;0.20;;;1.20;99.90;;;;;;5033638;28;20048;-73
2022/01/22 12:49:36;;;;;;;1.38;0.95;;;1.30;99.90;;;;;;5015931;28;20079;-74
2022/01/22 12:52:09;;;;;;;2.42;1.42;;;1.30;99.90;;;;;;5033053;28;20104;-74
2022/01/22 12:54:44;;;;;;;0.55;0.55;;;1.20;99.90;;;;;;5033678;28;20064;-74
2022/01/22 12:57:14;;;;;;;3.20;2.78;;;1.20;99.90;;;;;;5033373;28;20036;-74
2022/01/22 12:59:53;;;;;;;1.80;1.23;;;1.30;99.90;;;;;;4999888;28;20025;-74
2022/01/22 13:02:20;;;;;;;1.85;1.25;;;1.20;99.90;;;;;;5015322;28;20049;-74
2022/01/22 13:05:00;;;;;;;0.90;0.88;;;1.30;99.90;;;;;;5033066;28;20029;-74
2022/01/22 13:07:26;;;;;;;1.13;0.52;;;1.30;99.90;;;;;;4999253;28;20129;-74
2022/01/22 13:09:56;;;;;;;0.30;0.30;;;1.30;99.90;;;;;;5033095;28;20033;-74
2022/01/22 13:12:27;;;;;;;1.42;1.17;;;1.40;99.90;;;;;;5015319;28;20572;-74
2022/01/22 13:14:56;;;;;;;1.97;1.47;;;1.40;99.90;;;;;;5031836;28;20086;-74
2022/01/22 13:17:29;;;;;;;0.52;0.52;;;1.40;99.90;;;;;;5015060;28;20080;-74
2022/01/22 13:19:55;;;;;;;0.32;0.32;;;1.50;99.90;;;;;;5032843;28;20097;-74
2022/01/22 13:22:33;;;;;;;0.57;0.57;;;1.50;99.90;;;;;;5015113;28;20107;-74
2022/01/22 13:25:10;;;;;;;18.42;2.92;;;1.40;99.90;;;;;;5031759;28;20477;-74
2022/01/22 13:27:37;;;;;;;1.30;1.30;;;1.20;99.90;;;;;;5032923;28;20043;-74
2022/01/22 13:30:14;;;;;;;2.67;1.17;;;1.30;99.90;;;;;;5031490;28;20077;-74
2022/01/22 13:32:53;;;;;;;0.20;0.20;;;1.30;99.90;;;;;;5031652;28;20036;-74
2022/01/22 13:45:02;;;;;;;1.15;1.05;;;1.40;99.90;;;;;;5032671;28;20104;-74
2022/01/22 13:49:29;;;;;;;0.30;0.30;;;1.40;99.90;;;;;;5013498;28;20017;-74
2022/01/22 13:52:03;;;;;;;4.70;2.40;;;1.40;99.90;;;;;;5030744;28;20371;-74
2022/01/22 13:54:58;;;;;;;3.65;2.08;;;1.30;99.90;;;;;;5014561;28;20075;-74
2022/01/22 13:57:27;;;;;;;1.73;1.38;;;1.30;99.90;;;;;;5030149;28;20030;-74
2022/01/22 13:59:55;;;;;;;0.32;0.32;;;1.40;99.90;;;;;;5014830;28;20025;-74
2022/01/22 14:05:01;;;;;;;1.42;1.33;;;1.40;99.90;;;;;;5032720;28;20030;-73
2022/01/22 14:07:37;;;;;;;4.18;3.42;;;1.40;99.90;;;;;;5032167;28;20040;-73
2022/01/22 14:10:05;;;;;;;0.10;0.10;;;1.40;99.90;;;;;;5032252;28;20017;-73
2022/01/22 14:13:05;;;;;;;0.40;0.40;;;1.30;99.90;;;;;;5030872;28;20029;-74
2022/01/22 14:15:43;;;;;;;1.35;1.10;;;1.50;99.90;;;;;;5014400;28;20021;-73
2022/01/22 14:18:19;;;;;;;0.10;0.10;;;1.50;99.90;;;;;;5032134;28;20285;-74
2022/01/22 14:20:54;;;;;;;1.55;1.45;;;1.40;99.90;;;;;;5014293;28;20041;-74
2022/01/22 14:23:22;;;;;;;0.98;0.90;;;1.40;99.90;;;;;;5031001;28;20051;-74
2022/01/22 14:26:01;;;;;;;1.65;1.15;;;1.30;99.90;;;;;;5032092;28;20022;-74
2022/01/22 14:29:08;;;;;;;0.20;0.20;;;1.30;99.90;;;;;;5031944;28;20018;-74
2022/01/22 14:31:41;;;;;;;0.10;0.10;;;1.30;99.90;;;;;;5013828;28;20043;-74
2022/01/22 14:34:13;;;;;;;0.20;0.20;;;1.60;99.90;;;;;;5031993;28;20029;-74
2022/01/22 14:36:43;;;;;;;5.63;3.45;;;1.60;99.90;;;;;;5031947;28;20117;-73
2022/01/22 14:39:17;;;;;;;0.43;0.43;;;1.50;99.90;;;;;;5030693;28;20034;-74
2022/01/22 14:44:41;;;;;;;3.35;2.38;;;1.40;99.90;;;;;;5031897;28;20021;-74
2022/01/22 14:47:12;;;;;;;1.20;0.50;;;1.40;99.90;;;;;;5031722;28;20475;-74
2022/01/22 14:49:42;;;;;;;1.73;1.50;;;1.40;99.90;;;;;;4997659;28;20025;-73
2022/01/22 14:52:10;;;;;;;0.20;0.20;;;1.40;99.90;;;;;;5030345;28;20104;-74
2022/01/22 14:54:38;;;;;;;1.92;1.48;;;1.50;99.90;;;;;;5031640;28;20101;-73
2022/01/22 14:57:07;;;;;;;1.50;1.40;;;1.50;99.90;;;;;;5013901;28;20034;-73
2022/01/22 14:59:34;;;;;;;5.32;0.70;;;1.60;99.90;;;;;;5030589;28;20029;-74
2022/01/22 15:02:00;;;;;;;1.70;1.58;;;1.60;99.90;;;;;;5029894;28;20078;-74
2022/01/22 15:04:27;;;;;;;0.20;0.20;;;1.50;99.90;;;;;;5031821;28;20037;-74
2022/01/22 15:06:58;;;;;;;1.20;1.10;;;1.40;99.90;;;;;;5016240;28;20025;-74
2022/01/22 15:09:25;;;;;;;0.95;0.95;;;1.50;99.90;;;;;;5017722;28;20029;-74
2022/01/22 15:11:52;;;;;;;0.38;0.38;;;1.40;99.90;;;;;;5035351;28;20525;-73
2022/01/22 15:14:17;;;;;;;3.92;1.67;;;1.40;99.90;;;;;;5017421;28;20400;-74
2022/01/22 15:19:15;;;;;;;0.10;0.10;;;1.40;99.90;;;;;;5017568;28;20082;-74
2022/01/22 15:21:42;;;;;;;1.25;1.20;;;1.40;99.90;;;;;;5017085;28;20044;-74
2022/01/22 15:24:08;;;;;;;0.57;0.57;;;1.50;99.90;;;;;;5015813;28;20065;-74
2022/01/22 15:26:35;;;;;;;1.90;1.50;;;1.40;99.90;;;;;;5016839;28;20049;-74
2022/01/22 15:29:01;;;;;;;1.17;1.08;;;1.40;99.90;;;;;;5017097;28;20022;-74
2022/01/22 15:34:15;;;;;;;0.82;0.70;;;1.30;99.90;;;;;;5015850;28;20400;-73
2022/01/22 15:36:46;;;;;;;0.93;0.85;;;1.20;99.90;;;;;;5034308;28;20047;-72
2022/01/22 15:39:12;;;;;;;0.50;0.50;;;1.20;99.90;;;;;;5017270;28;20406;-74
2022/01/22 15:41:39;;;;;;;0.25;0.22;;;1.20;99.90;;;;;;5034876;28;20029;-74
2022/01/22 15:44:08;;;;;;;1.05;0.98;;;1.30;99.90;;;;;;5034724;28;20029;-73
2022/01/22 15:46:38;;;;;;;0.52;0.30;;;1.30;99.90;;;;;;5034813;28;20465;-74
2022/01/22 15:49:06;;;;;;;0.38;0.38;;;1.30;99.90;;;;;;5000747;28;20075;-74
2022/01/22 15:51:32;;;;;;;0.20;0.20;;;1.40;99.90;;;;;;5000519;28;20052;-73
2022/01/22 15:53:58;;;;;;;1.15;1.08;;;1.30;99.90;;;;;;5017244;28;20038;-74
2022/01/22 15:56:24;;;;;;;0.20;0.20;;;1.30;99.90;;;;;;5034631;28;20029;-74
2022/01/22 15:58:49;;;;;;;3.33;2.05;;;1.30;99.90;;;;;;5034806;28;20034;-73
2022/01/22 16:01:16;;;;;;;0.52;0.52;;;1.30;99.90;;;;;;5000420;28;20053;-74
2022/01/22 16:03:44;;;;;;;3.85;1.58;;;1.20;99.90;;;;;;5034442;28;20381;-73